Météo Nord-Pas-de-Calais   La météo au plus près de chez vous

Station météorologique

Observations météo à Amilly (45004)

45004001 91 m Dernier relevé à 22:18
23.4°C
Humidité 40 % Vent 10.1 km/h

Journée consultée

Dimanche 6 Septembre 2026

Synthèse de la journée

Périodes de référence en UTC

Température maximale

30.3°C

à 16:00

06h 06h

Température minimale

10.4°C

à 07:18

18h 18h

Rafale maximale

25 km/h

à 14:30

00h 00h

Précipitations

0 mm

Cumul quotidien

06h 06h

Graphiques de la journée

Heure locale Réduire

Données détaillées

Relevés météo

Pas de 6 minutes Afficher les relevés infra-horaires
Relevés météo détaillés à Amilly pour le Dimanche 6 Septembre 2026
Heure Température °C Point de rosée °C Humidité % Vent moyen (raf.), km/h Précipitations mm
22:18 23.4 °C 11.8 °C 48 % 2 km/h (4 km/h) 0 mm0 mm
22:12 23.9 °C 11.9 °C 47 % 4 km/h (6 km/h) 0 mm0 mm
22:06 23.9 °C 11.2 °C 45 % 6 km/h (8 km/h) 0 mm0 mm
22:00 24.1 °C 11.1 °C 44 % 8 km/h (9 km/h) 0 mm0 mm
21:54 24.5 °C 11.1 °C 43 % 6 km/h (9 km/h) 0 mm0 mm
21:48 24.7 °C 11.3 °C 43 % 7 km/h (12 km/h) 0 mm0 mm
21:42 24.7 °C 11.3 °C 43 % 8 km/h (10 km/h) 0 mm0 mm
21:36 25 °C 11.2 °C 42 % 8 km/h (10 km/h) 0 mm0 mm
21:30 25.6 °C 11 °C 40 % 9 km/h (14 km/h) 0 mm0 mm
21:24 25.6 °C 11 °C 40 % 10 km/h (14 km/h) 0 mm0 mm
21:18 25.7 °C 11.1 °C 40 % 10 km/h (13 km/h) 0 mm0 mm
21:12 25.7 °C 11.1 °C 40 % 9 km/h (13 km/h) 0 mm0 mm
21:06 25.9 °C 10.9 °C 39 % 9 km/h (13 km/h) 0 mm0 mm
21:00 26.2 °C 11.1 °C 39 % 10 km/h (15 km/h) 0 mm0 mm
20:54 26.4 °C 10.9 °C 38 % 11 km/h (15 km/h) 0 mm0 mm
20:48 26.4 °C 10.9 °C 38 % 12 km/h (16 km/h) 0 mm0 mm
20:42 26.4 °C 10.9 °C 38 % 12 km/h (16 km/h) 0 mm0 mm
20:36 26.2 °C 10.8 °C 38 % 10 km/h (14 km/h) 0 mm0 mm
20:30 26 °C 11 °C 39 % 10 km/h (13 km/h) 0 mm0 mm
20:24 25.9 °C 11.3 °C 40 % 10 km/h (13 km/h) 0 mm0 mm
20:18 25.9 °C 10.9 °C 39 % 9 km/h (13 km/h) 0 mm0 mm
20:12 25.7 °C 11.5 °C 41 % 6 km/h (10 km/h) 0 mm0 mm
20:06 26.5 °C 11 °C 38 % 4 km/h (8 km/h) 0 mm0 mm
20:00 26.9 °C 11 °C 37 % 5 km/h (9 km/h) 0 mm0 mm
19:54 26.6 °C 11.1 °C 38 % 5 km/h (9 km/h) 0 mm0 mm
19:48 27.1 °C 10.7 °C 36 % 3 km/h (5 km/h) 0 mm0 mm
19:42 27.4 °C 10.6 °C 35 % 3 km/h (7 km/h) 0 mm0 mm
19:36 27.6 °C 10.8 °C 35 % 4 km/h (7 km/h) 0 mm0 mm
19:30 27.8 °C 10.5 °C 34 % 5 km/h (15 km/h) 0 mm0 mm
19:24 28.1 °C 10.3 °C 33 % 10 km/h (17 km/h) 0 mm0 mm
19:18 28.2 °C 10.4 °C 33 % 14 km/h (23 km/h) 0 mm0 mm
19:12 28.3 °C 10.5 °C 33 % 17 km/h (23 km/h) 0 mm0 mm
19:06 28.4 °C 10.6 °C 33 % 17 km/h (23 km/h) 0 mm0 mm
19:00 28.6 °C 10.7 °C 33 % 15 km/h (23 km/h) 0 mm0 mm
18:54 28.6 °C 10.7 °C 33 % 10 km/h (18 km/h) 0 mm0 mm
18:48 28.7 °C 10.8 °C 33 % 11 km/h (18 km/h) 0 mm0 mm
18:42 28.6 °C 10.7 °C 33 % 14 km/h (19 km/h) 0 mm0 mm
18:36 28.8 °C 10.9 °C 33 % 13 km/h (19 km/h) 0 mm0 mm
18:30 29 °C 10.6 °C 32 % 12 km/h (16 km/h) 0 mm0 mm
18:24 29.1 °C 10.7 °C 32 % 12 km/h (16 km/h) 0 mm0 mm
18:18 29.2 °C 10.8 °C 32 % 12 km/h (16 km/h) 0 mm0 mm
18:12 28.9 °C 10.5 °C 32 % 12 km/h (16 km/h) 0 mm0 mm
18:06 28.8 °C 10.5 °C 32 % 9 km/h (14 km/h) 0 mm0 mm
18:00 28.8 °C 10.5 °C 32 % 7 km/h (10 km/h) 0 mm0 mm
17:54 28.9 °C 10.1 °C 31 % 8 km/h (12 km/h) 0 mm0 mm
17:48 28.9 °C 10.1 °C 31 % 9 km/h (12 km/h) 0 mm0 mm
17:42 28.9 °C 10.1 °C 31 % 9 km/h (12 km/h) 0 mm0 mm
17:36 29 °C 10.2 °C 31 % 9 km/h (12 km/h) 0 mm0 mm
17:30 28.9 °C 10.1 °C 31 % 10 km/h (18 km/h) 0 mm0 mm
17:24 28.9 °C 10.1 °C 31 % 13 km/h (19 km/h) 0 mm0 mm
17:18 29 °C 10.2 °C 31 % 13 km/h (19 km/h) 0 mm0 mm
17:12 29.1 °C 9.8 °C 30 % 12 km/h (17 km/h) 0 mm0 mm
17:06 29.2 °C 9.8 °C 30 % 9 km/h (14 km/h) 0 mm0 mm
17:00 29.1 °C 9.8 °C 30 % 8 km/h (12 km/h) 0 mm0 mm
16:54 29.1 °C 9.8 °C 30 % 9 km/h (18 km/h) 0 mm0 mm
16:48 29.1 °C 9.8 °C 30 % 11 km/h (18 km/h) 0 mm0 mm
16:42 29.5 °C 9.6 °C 29 % 10 km/h (16 km/h) 0 mm0 mm
16:36 29.4 °C 9.5 °C 29 % 10 km/h (15 km/h) 0 mm0 mm
16:30 29.4 °C 10 °C 30 % 9 km/h (15 km/h) 0 mm0 mm
16:24 29.3 °C 9.9 °C 30 % 10 km/h (14 km/h) 0 mm0 mm
16:18 29.6 °C 9.2 °C 28 % 9 km/h (14 km/h) 0 mm0 mm
16:12 29.5 °C 9.6 °C 29 % 10 km/h (19 km/h) 0 mm0 mm
16:06 29.7 °C 9.8 °C 29 % 11 km/h (19 km/h) 0 mm0 mm
16:00 30 °C 8.4 °C 26 % 10 km/h (17 km/h) 0 mm0 mm
15:54 30 °C 7.2 °C 24 % 9 km/h (14 km/h) 0 mm0 mm
15:48 29.7 °C 8.1 °C 26 % 10 km/h (19 km/h) 0 mm0 mm
15:42 30.1 °C 8.5 °C 26 % 10 km/h (20 km/h) 0 mm0 mm
15:36 30.2 °C 9.1 °C 27 % 9 km/h (20 km/h) 0 mm0 mm
15:30 29.7 °C 8.7 °C 27 % 10 km/h (17 km/h) 0 mm0 mm
15:24 29.3 °C 9.9 °C 30 % 8 km/h (17 km/h) 0 mm0 mm
15:18 29.1 °C 9.8 °C 30 % 10 km/h (20 km/h) 0 mm0 mm
15:12 28.8 °C 9.5 °C 30 % 12 km/h (20 km/h) 0 mm0 mm
15:06 28.7 °C 9.4 °C 30 % 12 km/h (18 km/h) 0 mm0 mm
15:00 29 °C 9.7 °C 30 % 9 km/h (18 km/h) 0 mm0 mm
14:54 28.8 °C 10 °C 31 % 10 km/h (16 km/h) 0 mm0 mm
14:48 28.9 °C 11 °C 33 % 10 km/h (22 km/h) 0 mm0 mm
14:42 28.9 °C 11.5 °C 34 % 10 km/h (22 km/h) 0 mm0 mm
14:36 28.9 °C 11 °C 33 % 13 km/h (21 km/h) 0 mm0 mm
14:30 28.5 °C 11.1 °C 34 % 16 km/h (25 km/h) 0 mm0 mm
14:24 28.7 °C 10.8 °C 33 % 15 km/h (22 km/h) 0 mm0 mm
14:18 28.8 °C 11.4 °C 34 % 16 km/h (22 km/h) 0 mm0 mm
14:12 28.1 °C 11.2 °C 35 % 14 km/h (21 km/h) 0 mm0 mm
14:06 27.9 °C 11 °C 35 % 14 km/h (21 km/h) 0 mm0 mm
14:00 27.7 °C 11.3 °C 36 % 15 km/h (20 km/h) 0 mm0 mm
13:54 27.5 °C 10.7 °C 35 % 15 km/h (20 km/h) 0 mm0 mm
13:48 27.6 °C 10.8 °C 35 % 15 km/h (22 km/h) 0 mm0 mm
13:42 27.3 °C 10.5 °C 35 % 15 km/h (22 km/h) 0 mm0 mm
13:36 27.3 °C 10.5 °C 35 % 15 km/h (22 km/h) 0 mm0 mm
13:30 27.4 °C 10.1 °C 34 % 15 km/h (20 km/h) 0 mm0 mm
13:24 27.3 °C 10.1 °C 34 % 15 km/h (20 km/h) 0 mm0 mm
13:18 27.4 °C 10.1 °C 34 % 14 km/h (20 km/h) 0 mm0 mm
13:12 27.4 °C 10.1 °C 34 % 13 km/h (18 km/h) 0 mm0 mm
13:06 27.3 °C 10.1 °C 34 % 14 km/h (20 km/h) 0 mm0 mm
13:00 27.1 °C 9.9 °C 34 % 14 km/h (20 km/h) 0 mm0 mm
12:54 27 °C 9.8 °C 34 % 15 km/h (20 km/h) 0 mm0 mm
12:48 26.9 °C 10.1 °C 35 % 15 km/h (20 km/h) 0 mm0 mm
12:42 26.9 °C 10.1 °C 35 % 14 km/h (21 km/h) 0 mm0 mm
12:36 27.2 °C 10.4 °C 35 % 11 km/h (21 km/h) 0 mm0 mm
12:30 26.9 °C 10.1 °C 35 % 10 km/h (17 km/h) 0 mm0 mm
12:24 26.6 °C 9.9 °C 35 % 10 km/h (18 km/h) 0 mm0 mm
12:18 26.4 °C 10.1 °C 36 % 12 km/h (18 km/h) 0 mm0 mm
12:12 26.4 °C 10.1 °C 36 % 13 km/h (18 km/h) 0 mm0 mm
12:06 26.6 °C 10.3 °C 36 % 14 km/h (20 km/h) 0 mm0 mm
12:00 26.3 °C 10 °C 36 % 16 km/h (21 km/h) 0 mm0 mm
11:54 26.2 °C 9.9 °C 36 % 15 km/h (21 km/h) 0 mm0 mm
11:48 25.9 °C 10.1 °C 37 % 12 km/h (19 km/h) 0 mm0 mm
11:42 25.6 °C 10.2 °C 38 % 12 km/h (20 km/h) 0 mm0 mm
11:36 25.1 °C 10.2 °C 39 % 14 km/h (21 km/h) 0 mm0 mm
11:30 24.8 °C 9.9 °C 39 % 14 km/h (21 km/h) 0 mm0 mm
11:24 24.4 °C 9.9 °C 40 % 15 km/h (23 km/h) 0 mm0 mm
11:18 24.2 °C 9.7 °C 40 % 15 km/h (23 km/h) 0 mm0 mm
11:12 23.6 °C 9.9 °C 42 % 15 km/h (20 km/h) 0 mm0 mm
11:06 23.3 °C 10 °C 43 % 15 km/h (20 km/h) 0 mm0 mm
11:00 23.2 °C 9.9 °C 43 % 14 km/h (19 km/h) 0 mm0 mm
10:54 23.1 °C 10.2 °C 44 % 13 km/h (18 km/h) 0 mm0 mm
10:48 22.8 °C 10.2 °C 45 % 12 km/h (18 km/h) 0 mm0 mm
10:42 22.9 °C 10.3 °C 45 % 12 km/h (18 km/h) 0 mm0 mm
10:36 22.9 °C 10.3 °C 45 % 11 km/h (16 km/h) 0 mm0 mm
10:30 22.6 °C 10.1 °C 45 % 10 km/h (16 km/h) 0 mm0 mm
10:24 22.4 °C 9.5 °C 44 % 10 km/h (17 km/h) 0 mm0 mm
10:18 22.6 °C 10.1 °C 45 % 11 km/h (17 km/h) 0 mm0 mm
10:12 22.6 °C 10.4 °C 46 % 11 km/h (18 km/h) 0 mm0 mm
10:06 21.9 °C 9.8 °C 46 % 12 km/h (18 km/h) 0 mm0 mm
10:00 21.5 °C 10 °C 48 % 10 km/h (18 km/h) 0 mm0 mm
09:54 21.2 °C 10.1 °C 49 % 11 km/h (17 km/h) 0 mm0 mm
09:48 20.7 °C 9.9 °C 50 % 12 km/h (17 km/h) 0 mm0 mm
09:42 20.2 °C 9.7 °C 51 % 12 km/h (17 km/h) 0 mm0 mm
09:36 19.7 °C 9.6 °C 52 % 11 km/h (14 km/h) 0 mm0 mm
09:30 19.3 °C 9.5 °C 53 % 12 km/h (19 km/h) 0 mm0 mm
09:24 19 °C 9.7 °C 55 % 12 km/h (19 km/h) 0 mm0 mm
09:18 18.9 °C 9.9 °C 56 % 11 km/h (17 km/h) 0 mm0 mm
09:12 18.5 °C 9.6 °C 56 % 13 km/h (19 km/h) 0 mm0 mm
09:06 18.2 °C 9.5 °C 57 % 13 km/h (20 km/h) 0 mm0 mm
09:00 18 °C 9.6 °C 58 % 10 km/h (18 km/h) 0 mm0 mm
08:54 17.5 °C 9.6 °C 60 % 7 km/h (12 km/h) 0 mm0 mm
08:48 17.1 °C 10 °C 63 % 5 km/h (7 km/h) 0 mm0 mm
08:42 16.8 °C 9.9 °C 64 % 4 km/h (6 km/h) 0 mm0 mm
08:36 16.3 °C 10.4 °C 68 % 4 km/h (6 km/h) 0 mm0 mm
08:30 16.2 °C 10.7 °C 70 % 4 km/h (6 km/h) 0 mm0 mm
08:24 15.9 °C 10.2 °C 69 % 4 km/h (7 km/h) 0 mm0 mm
08:18 15 °C 10.4 °C 74 % 4 km/h (7 km/h) 0 mm0 mm
08:12 14 °C 10.4 °C 79 % 3 km/h (6 km/h) 0 mm0 mm
08:06 12.7 °C 9.7 °C 82 % 0 km/h (4 km/h) 0 mm0 mm
08:00 12.5 °C 9.7 °C 83 % 2 km/h (5 km/h) 0 mm0 mm
07:54 12.6 °C 10 °C 84 % 4 km/h (6 km/h) 0 mm0 mm
07:48 12.3 °C 9.8 °C 85 % 5 km/h (6 km/h) 0 mm0 mm
07:42 11.5 °C 9.4 °C 87 % 3 km/h (5 km/h) 0 mm0 mm
07:36 10.8 °C 8.7 °C 87 % 0 km/h (3 km/h) 0 mm0 mm
07:30 10.5 °C 8.4 °C 87 % 0 km/h (3 km/h) 0 mm0 mm
07:24 10.4 °C 8.3 °C 87 % 3 km/h (6 km/h) 0 mm0 mm
07:18 10.4 °C 8.2 °C 86 % 3 km/h (6 km/h) 0 mm0 mm
07:12 10.6 °C 8.2 °C 85 % 2 km/h (4 km/h) 0 mm0 mm
07:06 10.7 °C 8.3 °C 85 % 2 km/h (4 km/h) 0 mm0 mm
07:00 10.9 °C 8.3 °C 84 % 3 km/h (5 km/h) 0 mm0 mm
06:54 11.1 °C 8.5 °C 84 % 3 km/h (6 km/h) 0 mm0 mm
06:48 11.3 °C 8.9 °C 85 % 4 km/h (6 km/h) 0 mm0 mm
06:42 10.7 °C 8.3 °C 85 % 2 km/h (5 km/h) 0 mm0 mm
06:36 10.8 °C 8.6 °C 86 % 0 km/h (3 km/h) 0 mm0 mm
06:30 10.8 °C 8.4 °C 85 % 0 km/h (3 km/h) 0 mm0 mm
06:24 10.8 °C 8.4 °C 85 % 2 km/h (3 km/h) 0 mm0 mm
06:18 11 °C 8.4 °C 84 % 3 km/h (5 km/h) 0 mm0 mm
06:12 11.2 °C 8.4 °C 83 % 4 km/h (6 km/h) 0 mm0 mm
06:06 11.4 °C 8.6 °C 83 % 5 km/h (10 km/h) 0 mm0 mm
06:00 11.6 °C 9 °C 84 % 6 km/h (10 km/h) 0 mm0 mm
05:54 11.2 °C 8.8 °C 85 % 4 km/h (8 km/h) 0 mm0 mm
05:48 10.9 °C 8.5 °C 85 % 0 km/h (4 km/h) 0 mm0 mm
05:42 10.8 °C 8.2 °C 84 % 0 km/h (0 km/h) 0 mm0 mm
05:36 10.9 °C 8.5 °C 85 % 0 km/h (0 km/h) 0 mm0 mm
05:30 10.9 °C 8.5 °C 85 % 0 km/h (2 km/h) 0 mm0 mm
05:24 11 °C 8.4 °C 84 % 0 km/h (2 km/h) 0 mm0 mm
05:18 11.1 °C 8.5 °C 84 % 0 km/h (2 km/h) 0 mm0 mm
05:12 11.2 °C 8.4 °C 83 % 0 km/h (2 km/h) 0 mm0 mm
05:06 11.3 °C 8.5 °C 83 % 0 km/h (3 km/h) 0 mm0 mm
05:00 11.4 °C 8.4 °C 82 % 2 km/h (4 km/h) 0 mm0 mm
04:54 11.5 °C 8.5 °C 82 % 2 km/h (4 km/h) 0 mm0 mm
04:48 11.6 °C 8.6 °C 82 % 0 km/h (3 km/h) 0 mm0 mm
04:42 11.7 °C 8.7 °C 82 % 0 km/h (3 km/h) 0 mm0 mm
04:36 11.8 °C 8.5 °C 80 % 2 km/h (3 km/h) 0 mm0 mm
04:30 12.2 °C 8.7 °C 79 % 0 km/h (3 km/h) 0 mm0 mm
04:24 12.5 °C 8.6 °C 77 % 2 km/h (4 km/h) 0 mm0 mm
04:18 12.8 °C 8.9 °C 77 % 4 km/h (5 km/h) 0 mm0 mm
04:12 13 °C 8.9 °C 76 % 4 km/h (5 km/h) 0 mm0 mm
04:06 12.8 °C 8.9 °C 77 % 3 km/h (5 km/h) 0 mm0 mm
04:00 12.3 °C 8.6 °C 78 % 2 km/h (4 km/h) 0 mm0 mm
03:54 12.2 °C 8.8 °C 80 % 0 km/h (5 km/h) 0 mm0 mm
03:48 12.2 °C 8.8 °C 80 % 3 km/h (6 km/h) 0 mm0 mm
03:42 12.3 °C 8.8 °C 79 % 4 km/h (6 km/h) 0 mm0 mm
03:36 12.5 °C 8.6 °C 77 % 2 km/h (4 km/h) 0 mm0 mm
03:30 12.4 °C 8.3 °C 76 % 0 km/h (3 km/h) 0 mm0 mm
03:24 12.5 °C 8.6 °C 77 % 0 km/h (2 km/h) 0 mm0 mm
03:18 12.6 °C 8.5 °C 76 % 0 km/h (3 km/h) 0 mm0 mm
03:12 12.8 °C 8.7 °C 76 % 0 km/h (3 km/h) 0 mm0 mm
03:06 13 °C 8.9 °C 76 % 0 km/h (4 km/h) 0 mm0 mm
03:00 13.2 °C 8.9 °C 75 % 0 km/h (4 km/h) 0 mm0 mm
02:54 13.4 °C 8.7 °C 73 % 3 km/h (6 km/h) 0 mm0 mm
02:48 13.7 °C 8.5 °C 71 % 5 km/h (7 km/h) 0 mm0 mm
02:42 13.8 °C 8.6 °C 71 % 5 km/h (8 km/h) 0 mm0 mm
02:36 13.4 °C 8.7 °C 73 % 3 km/h (7 km/h) 0 mm0 mm
02:30 13.1 °C 8.4 °C 73 % 0 km/h (3 km/h) 0 mm0 mm
02:24 13.3 °C 8.8 °C 74 % 0 km/h (2 km/h) 0 mm0 mm
02:18 13.5 °C 8.8 °C 73 % 0 km/h (0 km/h) 0 mm0 mm
02:12 13.6 °C 8.6 °C 72 % 0 km/h (0 km/h) 0 mm0 mm
02:06 13.9 °C 8.3 °C 69 % 0 km/h (0 km/h) 0 mm0 mm
02:00 14 °C 8.4 °C 69 % 0 km/h (0 km/h) 0 mm0 mm
01:54 14.1 °C 8.5 °C 69 % 0 km/h (3 km/h) 0 mm0 mm
01:48 14.3 °C 8.5 °C 68 % 0 km/h (3 km/h) 0 mm0 mm
01:42 14.7 °C 8.4 °C 66 % 0 km/h (3 km/h) 0 mm0 mm
01:36 14.9 °C 8.4 °C 65 % 0 km/h (3 km/h) 0 mm0 mm
01:30 15.4 °C 8.6 °C 64 % 2 km/h (5 km/h) 0 mm0 mm
01:24 16.4 °C 8.1 °C 58 % 3 km/h (5 km/h) 0 mm0 mm
01:18 16.8 °C 8 °C 56 % 4 km/h (7 km/h) 0 mm0 mm
01:12 17.1 °C 8.2 °C 56 % 6 km/h (8 km/h) 0 mm0 mm
01:06 17.2 °C 8.1 °C 55 % 5 km/h (8 km/h) 0 mm0 mm
01:00 17.3 °C 7.9 °C 54 % 4 km/h (9 km/h) 0 mm0 mm
00:54 17.7 °C 8.3 °C 54 % 7 km/h (12 km/h) 0 mm0 mm
00:48 17.7 °C 8.3 °C 54 % 6 km/h (10 km/h) 0 mm0 mm
00:42 17.8 °C 8.4 °C 54 % 6 km/h (10 km/h) 0 mm0 mm
00:36 17.9 °C 8.5 °C 54 % 6 km/h (10 km/h) 0 mm0 mm
00:30 17.9 °C 8.5 °C 54 % 8 km/h (13 km/h) 0 mm0 mm
00:24 17.8 °C 8.6 °C 55 % 8 km/h (12 km/h) 0 mm0 mm
00:18 17.7 °C 8.5 °C 55 % 6 km/h (9 km/h) 0 mm0 mm
00:12 17.8 °C 8.9 °C 56 % 6 km/h (9 km/h) 0 mm0 mm
00:06 18 °C 8.8 °C 55 % 7 km/h (9 km/h) 0 mm0 mm
00:00 18.1 °C 8.9 °C 55 % 6 km/h (9 km/h) 0 mm0 mm

Données via Météo-France

Relevés météo à Amilly

Cette page rassemble les observations de la station de Amilly : température, humidité, vent, précipitations et pression atmosphérique. Les graphiques facilitent le suivi de la journée, tandis que le tableau donne accès aux mesures horaires et infra-horaires disponibles.

Pour replacer ces mesures dans leur contexte, consultez la climatologie de Amilly ainsi que ses normales et records. Retrouvez aussi la carte des observations météo en temps réel.